CPA401 RCTP-VHHH
Flight info
| Callsign | CPA401 |
|---|---|
| Flight time | N/A |
| Altitude | 36000 |
| Route | CHALI1A CHALI T3 MKG A1 ELATO V522 ABBEY |
| Aircraft | B744/H-SDE3FGHIM1M2RWXY/LB1 |
Departure
| Time | 2026-04-30 17:44 |
|---|---|
| Airport | Taiwan Taoyuan International Airport (RCTP) |
Arrival
| Time | N/A |
|---|---|
| Airport | Hong Kong International Airport (VHHH) |
| Time | Latitude | Longitude | Altitude | Speed | Heading |
|---|---|---|---|---|---|
| 2026-04-30 17:39 | 25.07412 | 121.22254 | 120 ft | 15 kts | 229° |
| 2026-04-30 17:41 | 25.06570 | 121.22615 | 120 ft | 14 kts | 226° |
| 2026-04-30 17:42 | 25.06365 | 121.22354 | 120 ft | 16 kts | 229° |
| 2026-04-30 17:42 | 25.06234 | 121.22380 | 120 ft | 0 kts | 135° |
| 2026-04-30 17:43 | 25.06229 | 121.22516 | 120 ft | 14 kts | 50° |
| 2026-04-30 17:44 | 25.07949 | 121.24686 | 1101 ft | 201 kts | 49° |
| 2026-04-30 17:44 | 25.10686 | 121.28254 | 3769 ft | 211 kts | 50° |
| 2026-04-30 17:46 | 25.17540 | 121.28705 | 6822 ft | 257 kts | 308° |
| 2026-04-30 17:47 | 25.21819 | 121.22144 | 10337 ft | 274 kts | 306° |
| 2026-04-30 17:48 | 25.27171 | 121.14300 | 11500 ft | 374 kts | 286° |
| 2026-04-30 17:48 | 25.25278 | 121.05895 | 13794 ft | 407 kts | 230° |
| 2026-04-30 17:49 | 25.16424 | 120.97566 | 17212 ft | 427 kts | 227° |
| 2026-04-30 17:50 | 25.07786 | 120.88180 | 20208 ft | 447 kts | 226° |
| 2026-04-30 17:51 | 25.01007 | 120.80891 | 22215 ft | 461 kts | 226° |
| 2026-04-30 17:52 | 24.94038 | 120.73371 | 24051 ft | 473 kts | 226° |
| 2026-04-30 17:53 | 24.82020 | 120.60456 | 26618 ft | 492 kts | 226° |
| 2026-04-30 17:54 | 24.72136 | 120.50163 | 29291 ft | 487 kts | 221° |
| 2026-04-30 17:55 | 24.61013 | 120.41696 | 31593 ft | 484 kts | 217° |
| 2026-04-30 17:56 | 24.49984 | 120.33384 | 33522 ft | 480 kts | 217° |
| 2026-04-30 17:57 | 24.41778 | 120.27130 | 34784 ft | 477 kts | 218° |
| 2026-04-30 17:58 | 24.33673 | 120.20827 | 35908 ft | 474 kts | 217° |
| 2026-04-30 17:59 | 24.22916 | 120.12520 | 37135 ft | 474 kts | 217° |
| 2026-04-30 18:00 | 24.12133 | 120.04191 | 37992 ft | 474 kts | 218° |
| 2026-04-30 18:01 | 23.98684 | 119.93800 | 37997 ft | 474 kts | 217° |
| 2026-04-30 18:02 | 23.82505 | 119.81340 | 37997 ft | 474 kts | 218° |
| 2026-04-30 18:04 | 23.66296 | 119.68903 | 37997 ft | 474 kts | 217° |
| 2026-04-30 18:05 | 23.56864 | 119.59173 | 37997 ft | 470 kts | 236° |
| 2026-04-30 18:06 | 23.49874 | 119.47188 | 37997 ft | 467 kts | 239° |
| 2026-04-30 18:08 | 23.37731 | 119.26229 | 37997 ft | 468 kts | 239° |
| 2026-04-30 18:10 | 23.23804 | 119.02349 | 37997 ft | 468 kts | 239° |
| 2026-04-30 18:11 | 23.12156 | 118.82468 | 37997 ft | 468 kts | 239° |
| 2026-04-30 18:13 | 23.02834 | 118.66618 | 37997 ft | 468 kts | 239° |
| 2026-04-30 18:14 | 22.94052 | 118.51760 | 37997 ft | 468 kts | 239° |
| 2026-04-30 18:15 | 22.83453 | 118.33985 | 37997 ft | 468 kts | 238° |
| 2026-04-30 18:16 | 22.76400 | 118.22132 | 37997 ft | 468 kts | 239° |
| 2026-04-30 18:17 | 22.72898 | 118.16241 | 37997 ft | 468 kts | 238° |
| 2026-04-30 18:18 | 22.67583 | 118.07369 | 37997 ft | 468 kts | 238° |
| 2026-04-30 18:18 | 22.64633 | 118.02453 | 37997 ft | 468 kts | 238° |
| 2026-04-30 18:19 | 22.61088 | 117.96549 | 37997 ft | 468 kts | 238° |
| 2026-04-30 18:19 | 22.57560 | 117.90635 | 37997 ft | 468 kts | 239° |
| 2026-04-30 18:20 | 22.53460 | 117.83759 | 37997 ft | 468 kts | 239° |
| 2026-04-30 18:20 | 22.50508 | 117.78806 | 37997 ft | 468 kts | 239° |
| 2026-04-30 18:21 | 22.46998 | 117.72879 | 37997 ft | 468 kts | 239° |
| 2026-04-30 18:21 | 22.43472 | 117.66977 | 37997 ft | 468 kts | 238° |
| 2026-04-30 18:22 | 22.39957 | 117.61106 | 37997 ft | 468 kts | 238° |
| 2026-04-30 18:22 | 22.34779 | 117.52186 | 37984 ft | 466 kts | 248° |
| 2026-04-30 18:23 | 22.33864 | 117.48843 | 38004 ft | 465 kts | 259° |
| 2026-04-30 18:23 | 22.33372 | 117.45382 | 37997 ft | 465 kts | 264° |
| 2026-04-30 18:23 | 22.32981 | 117.38419 | 37997 ft | 464 kts | 269° |
| 2026-04-30 18:24 | 22.32858 | 117.27994 | 37997 ft | 464 kts | 269° |
| 2026-04-30 18:25 | 22.32802 | 117.24509 | 37997 ft | 464 kts | 269° |